sensor_id;sensor_type;location;lat;lon;timestamp;pressure;altitude;pressure_sealevel;temperature;humidity
41044;BME280;51680;49.806;18.774;2023-11-19T00:00:35;97797.75;;;2.71;85.65
41044;BME280;51680;49.806;18.774;2023-11-19T00:03:37;97795.09;;;2.74;85.28
41044;BME280;51680;49.806;18.774;2023-11-19T00:06:39;97799.34;;;2.75;85.12
41044;BME280;51680;49.806;18.774;2023-11-19T00:09:41;97807.16;;;2.72;84.66
41044;BME280;51680;49.806;18.774;2023-11-19T00:12:47;97801.19;;;2.72;84.88
41044;BME280;51680;49.806;18.774;2023-11-19T00:15:49;97805.56;;;2.68;84.90
41044;BME280;51680;49.806;18.774;2023-11-19T00:18:51;97803.00;;;2.68;85.17
41044;BME280;51680;49.806;18.774;2023-11-19T00:21:53;97801.28;;;2.67;85.22
41044;BME280;51680;49.806;18.774;2023-11-19T00:24:55;97803.16;;;2.61;85.41
41044;BME280;51680;49.806;18.774;2023-11-19T00:27:58;97790.56;;;2.52;85.91
41044;BME280;51680;49.806;18.774;2023-11-19T00:31:00;97789.72;;;2.50;86.28
41044;BME280;51680;49.806;18.774;2023-11-19T00:34:03;97788.84;;;2.51;86.50
41044;BME280;51680;49.806;18.774;2023-11-19T00:37:06;97777.94;;;2.41;86.62
41044;BME280;51680;49.806;18.774;2023-11-19T00:40:09;97788.44;;;2.34;87.06
41044;BME280;51680;49.806;18.774;2023-11-19T00:43:13;97787.41;;;2.39;86.93
41044;BME280;51680;49.806;18.774;2023-11-19T00:46:15;97801.03;;;2.44;86.34
41044;BME280;51680;49.806;18.774;2023-11-19T00:49:17;97792.13;;;2.56;85.81
41044;BME280;51680;49.806;18.774;2023-11-19T00:52:19;97789.44;;;2.62;85.18
41044;BME280;51680;49.806;18.774;2023-11-19T00:55:22;97776.47;;;2.63;85.23
41044;BME280;51680;49.806;18.774;2023-11-19T00:58:25;97779.69;;;2.71;84.71
41044;BME280;51680;49.806;18.774;2023-11-19T01:01:27;97781.63;;;2.63;84.85
41044;BME280;51680;49.806;18.774;2023-11-19T01:04:33;97773.50;;;2.46;85.58
41044;BME280;51680;49.806;18.774;2023-11-19T01:07:35;97764.31;;;2.38;85.53
41044;BME280;51680;49.806;18.774;2023-11-19T01:10:37;97765.56;;;2.22;86.23
41044;BME280;51680;49.806;18.774;2023-11-19T01:13:40;97771.72;;;2.16;86.52
41044;BME280;51680;49.806;18.774;2023-11-19T01:16:42;97770.09;;;2.12;86.87
41044;BME280;51680;49.806;18.774;2023-11-19T01:19:45;97768.31;;;2.14;86.59
41044;BME280;51680;49.806;18.774;2023-11-19T01:22:47;97757.13;;;2.15;86.59
41044;BME280;51680;49.806;18.774;2023-11-19T01:25:50;97763.19;;;2.14;86.85
41044;BME280;51680;49.806;18.774;2023-11-19T01:28:53;97760.59;;;2.14;86.83
41044;BME280;51680;49.806;18.774;2023-11-19T01:31:55;97735.19;;;2.02;87.30
41044;BME280;51680;49.806;18.774;2023-11-19T01:34:58;97721.81;;;1.88;87.54
41044;BME280;51680;49.806;18.774;2023-11-19T01:38:00;97720.25;;;1.81;87.99
41044;BME280;51680;49.806;18.774;2023-11-19T01:41:03;97718.09;;;1.65;88.33
41044;BME280;51680;49.806;18.774;2023-11-19T01:44:07;97712.31;;;1.55;89.17
41044;BME280;51680;49.806;18.774;2023-11-19T01:47:09;97714.53;;;1.35;90.88
41044;BME280;51680;49.806;18.774;2023-11-19T01:50:11;97702.41;;;1.40;90.95
41044;BME280;51680;49.806;18.774;2023-11-19T01:53:14;97686.16;;;1.38;90.90
41044;BME280;51680;49.806;18.774;2023-11-19T01:56:17;97692.19;;;1.37;90.66
41044;BME280;51680;49.806;18.774;2023-11-19T01:59:21;97682.78;;;1.36;90.50
41044;BME280;51680;49.806;18.774;2023-11-19T02:02:27;97686.13;;;1.40;90.21
41044;BME280;51680;49.806;18.774;2023-11-19T02:05:29;97663.09;;;1.35;90.39
41044;BME280;51680;49.806;18.774;2023-11-19T02:08:32;97640.41;;;1.16;91.56
41044;BME280;51680;49.806;18.774;2023-11-19T02:11:34;97632.94;;;1.05;91.85
41044;BME280;51680;49.806;18.774;2023-11-19T02:14:38;97629.53;;;1.05;91.86
41044;BME280;51680;49.806;18.774;2023-11-19T02:17:42;97618.56;;;0.98;92.03
41044;BME280;51680;49.806;18.774;2023-11-19T02:20:44;97600.56;;;0.98;92.24
41044;BME280;51680;49.806;18.774;2023-11-19T02:23:46;97607.47;;;0.96;92.18
41044;BME280;51680;49.806;18.774;2023-11-19T02:26:53;97605.56;;;1.04;91.88
41044;BME280;51680;49.806;18.774;2023-11-19T02:29:59;97598.59;;;1.09;90.67
41044;BME280;51680;49.806;18.774;2023-11-19T02:33:01;97590.34;;;0.95;90.54
41044;BME280;51680;49.806;18.774;2023-11-19T02:36:07;97596.41;;;0.93;90.62
41044;BME280;51680;49.806;18.774;2023-11-19T02:39:09;97610.13;;;0.92;90.32
41044;BME280;51680;49.806;18.774;2023-11-19T02:42:13;97598.13;;;0.94;90.46
41044;BME280;51680;49.806;18.774;2023-11-19T02:45:17;97589.41;;;0.99;90.09
41044;BME280;51680;49.806;18.774;2023-11-19T02:48:19;97578.47;;;0.91;90.17
41044;BME280;51680;49.806;18.774;2023-11-19T02:51:21;97556.19;;;0.92;90.45
41044;BME280;51680;49.806;18.774;2023-11-19T02:54:24;97565.47;;;0.99;90.17
41044;BME280;51680;49.806;18.774;2023-11-19T02:57:31;97557.47;;;1.09;89.87
41044;BME280;51680;49.806;18.774;2023-11-19T03:00:34;97545.50;;;1.08;89.73
41044;BME280;51680;49.806;18.774;2023-11-19T03:03:43;97536.78;;;1.15;89.17
41044;BME280;51680;49.806;18.774;2023-11-19T03:06:49;97545.34;;;1.14;89.11
41044;BME280;51680;49.806;18.774;2023-11-19T03:09:53;97545.22;;;1.20;89.32
41044;BME280;51680;49.806;18.774;2023-11-19T03:12:55;97546.91;;;1.21;89.06
41044;BME280;51680;49.806;18.774;2023-11-19T03:15:59;97529.84;;;1.19;89.16
41044;BME280;51680;49.806;18.774;2023-11-19T03:19:19;97520.47;;;1.16;89.16
41044;BME280;51680;49.806;18.774;2023-11-19T03:22:21;97506.75;;;1.16;89.30
41044;BME280;51680;49.806;18.774;2023-11-19T03:25:24;97504.22;;;1.14;89.60
41044;BME280;51680;49.806;18.774;2023-11-19T03:28:27;97498.31;;;1.11;89.77
41044;BME280;51680;49.806;18.774;2023-11-19T03:31:49;97502.78;;;1.04;90.23
41044;BME280;51680;49.806;18.774;2023-11-19T03:34:51;97491.78;;;0.98;90.24
41044;BME280;51680;49.806;18.774;2023-11-19T03:37:53;97472.97;;;0.99;90.49
41044;BME280;51680;49.806;18.774;2023-11-19T03:40:56;97485.84;;;0.97;90.43
41044;BME280;51680;49.806;18.774;2023-11-19T03:43:58;97485.44;;;1.12;89.68
41044;BME280;51680;49.806;18.774;2023-11-19T03:47:02;97484.69;;;1.09;89.44
41044;BME280;51680;49.806;18.774;2023-11-19T03:50:05;97468.47;;;1.05;90.03
41044;BME280;51680;49.806;18.774;2023-11-19T03:53:08;97460.03;;;1.00;90.19
41044;BME280;51680;49.806;18.774;2023-11-19T03:56:10;97451.47;;;1.01;90.25
41044;BME280;51680;49.806;18.774;2023-11-19T03:59:12;97455.78;;;0.99;90.17
41044;BME280;51680;49.806;18.774;2023-11-19T04:02:17;97434.28;;;1.03;90.06
41044;BME280;51680;49.806;18.774;2023-11-19T04:05:19;97439.50;;;1.00;90.07
41044;BME280;51680;49.806;18.774;2023-11-19T04:08:21;97441.81;;;1.09;89.76
41044;BME280;51680;49.806;18.774;2023-11-19T04:11:23;97440.03;;;1.13;89.41
41044;BME280;51680;49.806;18.774;2023-11-19T04:14:25;97449.19;;;1.23;88.84
41044;BME280;51680;49.806;18.774;2023-11-19T04:17:28;97443.13;;;1.25;88.42
41044;BME280;51680;49.806;18.774;2023-11-19T04:20:30;97445.59;;;1.28;88.53
41044;BME280;51680;49.806;18.774;2023-11-19T04:23:33;97447.03;;;1.38;87.96
41044;BME280;51680;49.806;18.774;2023-11-19T04:26:35;97446.72;;;1.50;87.62
41044;BME280;51680;49.806;18.774;2023-11-19T04:29:37;97449.81;;;1.61;87.36
41044;BME280;51680;49.806;18.774;2023-11-19T04:32:40;97448.56;;;1.76;86.78
41044;BME280;51680;49.806;18.774;2023-11-19T04:35:42;97441.31;;;1.88;86.30
41044;BME280;51680;49.806;18.774;2023-11-19T04:38:44;97424.91;;;1.92;86.23
41044;BME280;51680;49.806;18.774;2023-11-19T04:41:46;97427.28;;;1.98;86.24
41044;BME280;51680;49.806;18.774;2023-11-19T04:44:49;97413.34;;;2.05;85.75
41044;BME280;51680;49.806;18.774;2023-11-19T04:47:52;97406.63;;;2.01;85.39
41044;BME280;51680;49.806;18.774;2023-11-19T04:50:54;97397.31;;;1.97;85.47
41044;BME280;51680;49.806;18.774;2023-11-19T04:53:56;97392.81;;;2.04;85.63
41044;BME280;51680;49.806;18.774;2023-11-19T04:56:58;97396.91;;;2.09;85.34
41044;BME280;51680;49.806;18.774;2023-11-19T05:00:00;97386.53;;;2.12;85.25
41044;BME280;51680;49.806;18.774;2023-11-19T05:03:06;97380.00;;;2.02;85.09
41044;BME280;51680;49.806;18.774;2023-11-19T05:06:08;97378.19;;;2.04;85.87
41044;BME280;51680;49.806;18.774;2023-11-19T05:09:10;97371.44;;;2.00;85.73
41044;BME280;51680;49.806;18.774;2023-11-19T05:12:14;97367.72;;;1.83;86.30
41044;BME280;51680;49.806;18.774;2023-11-19T05:15:16;97368.66;;;1.80;86.25
41044;BME280;51680;49.806;18.774;2023-11-19T05:18:19;97371.19;;;1.82;86.10
41044;BME280;51680;49.806;18.774;2023-11-19T05:21:21;97373.56;;;1.88;86.08
41044;BME280;51680;49.806;18.774;2023-11-19T05:24:24;97364.81;;;1.93;86.03
41044;BME280;51680;49.806;18.774;2023-11-19T05:27:26;97376.09;;;1.89;85.52
41044;BME280;51680;49.806;18.774;2023-11-19T05:30:29;97365.50;;;2.00;85.71
41044;BME280;51680;49.806;18.774;2023-11-19T05:33:32;97352.56;;;2.01;85.34
41044;BME280;51680;49.806;18.774;2023-11-19T05:36:34;97361.84;;;2.05;85.42
41044;BME280;51680;49.806;18.774;2023-11-19T05:39:36;97351.47;;;2.08;85.09
41044;BME280;51680;49.806;18.774;2023-11-19T05:42:38;97341.91;;;2.12;85.13
41044;BME280;51680;49.806;18.774;2023-11-19T05:45:40;97357.13;;;2.19;84.94
41044;BME280;51680;49.806;18.774;2023-11-19T05:48:43;97345.06;;;2.21;84.97
41044;BME280;51680;49.806;18.774;2023-11-19T05:51:47;97365.78;;;2.17;84.69
41044;BME280;51680;49.806;18.774;2023-11-19T05:54:49;97371.91;;;2.40;84.68
41044;BME280;51680;49.806;18.774;2023-11-19T05:57:52;97367.44;;;2.45;84.06
41044;BME280;51680;49.806;18.774;2023-11-19T06:00:54;97358.91;;;2.43;84.34
41044;BME280;51680;49.806;18.774;2023-11-19T06:03:58;97359.13;;;2.37;84.22
41044;BME280;51680;49.806;18.774;2023-11-19T06:07:01;97357.78;;;2.26;84.46
41044;BME280;51680;49.806;18.774;2023-11-19T06:10:04;97359.69;;;2.19;84.50
41044;BME280;51680;49.806;18.774;2023-11-19T06:13:07;97360.31;;;2.27;84.68
41044;BME280;51680;49.806;18.774;2023-11-19T06:16:11;97351.88;;;2.22;84.91
41044;BME280;51680;49.806;18.774;2023-11-19T06:19:14;97343.47;;;2.17;85.01
41044;BME280;51680;49.806;18.774;2023-11-19T06:22:16;97331.59;;;2.13;85.65
41044;BME280;51680;49.806;18.774;2023-11-19T06:25:18;97317.00;;;2.14;85.75
41044;BME280;51680;49.806;18.774;2023-11-19T06:28:20;97308.56;;;2.09;85.97
41044;BME280;51680;49.806;18.774;2023-11-19T06:31:22;97288.75;;;2.11;86.15
41044;BME280;51680;49.806;18.774;2023-11-19T06:34:25;97278.22;;;2.18;85.52
41044;BME280;51680;49.806;18.774;2023-11-19T06:37:27;97283.09;;;2.26;85.53
41044;BME280;51680;49.806;18.774;2023-11-19T06:40:29;97277.75;;;2.32;84.55
41044;BME280;51680;49.806;18.774;2023-11-19T06:43:31;97264.69;;;2.38;84.50
41044;BME280;51680;49.806;18.774;2023-11-19T06:46:34;97257.47;;;2.47;84.09
41044;BME280;51680;49.806;18.774;2023-11-19T06:49:37;97258.16;;;2.52;83.25
41044;BME280;51680;49.806;18.774;2023-11-19T06:52:39;97246.63;;;2.62;82.67
41044;BME280;51680;49.806;18.774;2023-11-19T06:55:41;97248.88;;;2.71;82.57
41044;BME280;51680;49.806;18.774;2023-11-19T06:58:43;97251.91;;;2.82;82.18
41044;BME280;51680;49.806;18.774;2023-11-19T07:01:45;97251.66;;;2.90;82.09
41044;BME280;51680;49.806;18.774;2023-11-19T07:04:48;97260.78;;;2.98;81.81
41044;BME280;51680;49.806;18.774;2023-11-19T07:07:51;97250.16;;;3.07;81.65
41044;BME280;51680;49.806;18.774;2023-11-19T07:10:53;97261.00;;;3.15;81.32
41044;BME280;51680;49.806;18.774;2023-11-19T07:13:55;97247.44;;;3.10;81.15
41044;BME280;51680;49.806;18.774;2023-11-19T07:16:59;97239.75;;;3.09;80.91
41044;BME280;51680;49.806;18.774;2023-11-19T07:20:03;97250.91;;;3.09;81.37
41044;BME280;51680;49.806;18.774;2023-11-19T07:23:06;97245.31;;;3.21;81.07
41044;BME280;51680;49.806;18.774;2023-11-19T07:26:09;97251.81;;;3.31;80.71
41044;BME280;51680;49.806;18.774;2023-11-19T07:29:11;97259.41;;;3.34;80.04
41044;BME280;51680;49.806;18.774;2023-11-19T07:32:13;97258.31;;;3.41;80.44
41044;BME280;51680;49.806;18.774;2023-11-19T07:35:17;97257.16;;;3.48;80.04
41044;BME280;51680;49.806;18.774;2023-11-19T07:38:19;97234.91;;;3.46;80.47
41044;BME280;51680;49.806;18.774;2023-11-19T07:41:21;97229.63;;;3.27;80.83
41044;BME280;51680;49.806;18.774;2023-11-19T07:44:23;97218.59;;;3.45;80.57
41044;BME280;51680;49.806;18.774;2023-11-19T07:47:25;97211.16;;;3.38;80.21
41044;BME280;51680;49.806;18.774;2023-11-19T07:50:30;97211.38;;;3.32;80.75
41044;BME280;51680;49.806;18.774;2023-11-19T07:53:32;97201.09;;;3.30;80.81
41044;BME280;51680;49.806;18.774;2023-11-19T07:56:34;97204.38;;;3.35;81.22
41044;BME280;51680;49.806;18.774;2023-11-19T07:59:55;97199.50;;;3.49;80.48
41044;BME280;51680;49.806;18.774;2023-11-19T08:02:57;97200.09;;;3.56;80.04
41044;BME280;51680;49.806;18.774;2023-11-19T08:06:19;97186.47;;;3.74;79.89
41044;BME280;51680;49.806;18.774;2023-11-19T08:09:21;97180.72;;;3.87;78.98
41044;BME280;51680;49.806;18.774;2023-11-19T08:12:23;97182.13;;;4.16;77.92
41044;BME280;51680;49.806;18.774;2023-11-19T08:15:25;97173.00;;;4.47;76.27
41044;BME280;51680;49.806;18.774;2023-11-19T08:18:27;97173.47;;;4.75;76.65
41044;BME280;51680;49.806;18.774;2023-11-19T08:21:31;97165.31;;;4.64;75.88
41044;BME280;51680;49.806;18.774;2023-11-19T08:24:33;97173.84;;;4.48;76.11
41044;BME280;51680;49.806;18.774;2023-11-19T08:27:35;97176.09;;;4.55;76.67
41044;BME280;51680;49.806;18.774;2023-11-19T08:30:37;97178.16;;;4.47;75.70
41044;BME280;51680;49.806;18.774;2023-11-19T08:33:39;97160.19;;;4.44;76.23
41044;BME280;51680;49.806;18.774;2023-11-19T08:36:42;97156.59;;;4.28;75.97
41044;BME280;51680;49.806;18.774;2023-11-19T08:39:44;97163.31;;;4.32;76.61
41044;BME280;51680;49.806;18.774;2023-11-19T08:42:47;97172.13;;;4.08;75.51
41044;BME280;51680;49.806;18.774;2023-11-19T08:45:49;97160.09;;;4.27;76.75
41044;BME280;51680;49.806;18.774;2023-11-19T08:49:10;97169.13;;;4.37;76.84
41044;BME280;51680;49.806;18.774;2023-11-19T08:52:13;97157.59;;;4.44;76.35
41044;BME280;51680;49.806;18.774;2023-11-19T08:55:15;97141.44;;;4.59;76.46
41044;BME280;51680;49.806;18.774;2023-11-19T08:58:17;97147.50;;;4.40;75.10
41044;BME280;51680;49.806;18.774;2023-11-19T09:01:19;97131.78;;;4.44;76.33
41044;BME280;51680;49.806;18.774;2023-11-19T09:04:21;97122.56;;;4.39;75.77
41044;BME280;51680;49.806;18.774;2023-11-19T09:07:25;97113.97;;;4.38;75.64
41044;BME280;51680;49.806;18.774;2023-11-19T09:10:27;97106.09;;;4.41;75.77
41044;BME280;51680;49.806;18.774;2023-11-19T09:13:30;97098.13;;;4.46;75.62
41044;BME280;51680;49.806;18.774;2023-11-19T09:16:32;97084.84;;;4.53;76.33
41044;BME280;51680;49.806;18.774;2023-11-19T09:19:34;97095.34;;;4.50;74.94
41044;BME280;51680;49.806;18.774;2023-11-19T09:22:37;97082.78;;;4.61;74.42
41044;BME280;51680;49.806;18.774;2023-11-19T09:25:39;97071.94;;;4.53;75.09
41044;BME280;51680;49.806;18.774;2023-11-19T09:28:41;97077.75;;;4.77;75.25
41044;BME280;51680;49.806;18.774;2023-11-19T09:31:43;97078.41;;;4.62;74.80
41044;BME280;51680;49.806;18.774;2023-11-19T09:34:45;97075.34;;;4.72;74.39
41044;BME280;51680;49.806;18.774;2023-11-19T09:37:49;97060.97;;;4.85;75.16
41044;BME280;51680;49.806;18.774;2023-11-19T09:40:51;97054.63;;;5.09;74.39
41044;BME280;51680;49.806;18.774;2023-11-19T09:43:53;97050.69;;;5.19;74.30
41044;BME280;51680;49.806;18.774;2023-11-19T09:46:56;97033.09;;;5.09;72.91
41044;BME280;51680;49.806;18.774;2023-11-19T09:49:59;97038.25;;;5.09;73.91
41044;BME280;51680;49.806;18.774;2023-11-19T09:53:02;97022.97;;;5.04;74.16
41044;BME280;51680;49.806;18.774;2023-11-19T09:56:05;97020.94;;;5.11;74.55
41044;BME280;51680;49.806;18.774;2023-11-19T09:59:09;97009.63;;;4.95;74.86
41044;BME280;51680;49.806;18.774;2023-11-19T10:02:12;96996.88;;;5.09;74.68
41044;BME280;51680;49.806;18.774;2023-11-19T10:05:15;97001.44;;;4.87;75.13
41044;BME280;51680;49.806;18.774;2023-11-19T10:08:18;96993.13;;;4.97;74.63
41044;BME280;51680;49.806;18.774;2023-11-19T10:11:20;96964.06;;;4.92;75.27
41044;BME280;51680;49.806;18.774;2023-11-19T10:14:23;96951.63;;;5.00;75.06
41044;BME280;51680;49.806;18.774;2023-11-19T10:17:27;96951.38;;;5.05;76.22
41044;BME280;51680;49.806;18.774;2023-11-19T10:20:35;96939.00;;;5.28;76.08
41044;BME280;51680;49.806;18.774;2023-11-19T10:23:49;96948.09;;;5.35;76.00
41044;BME280;51680;49.806;18.774;2023-11-19T10:26:52;96932.19;;;5.43;75.47
41044;BME280;51680;49.806;18.774;2023-11-19T10:29:54;96926.00;;;5.62;75.47
41044;BME280;51680;49.806;18.774;2023-11-19T10:33:14;96928.31;;;5.51;76.20
41044;BME280;51680;49.806;18.774;2023-11-19T10:36:18;96929.13;;;5.52;75.97
41044;BME280;51680;49.806;18.774;2023-11-19T10:39:21;96919.03;;;5.30;76.25
41044;BME280;51680;49.806;18.774;2023-11-19T10:42:25;96916.75;;;5.41;77.88
41044;BME280;51680;49.806;18.774;2023-11-19T10:45:45;96915.06;;;5.40;77.73
41044;BME280;51680;49.806;18.774;2023-11-19T10:48:47;96926.97;;;5.27;78.51
41044;BME280;51680;49.806;18.774;2023-11-19T10:51:50;96917.50;;;5.26;79.27
41044;BME280;51680;49.806;18.774;2023-11-19T10:54:55;96917.84;;;5.20;80.36
41044;BME280;51680;49.806;18.774;2023-11-19T10:58:02;96908.16;;;5.24;79.92
41044;BME280;51680;49.806;18.774;2023-11-19T11:01:11;96914.25;;;5.40;79.62
41044;BME280;51680;49.806;18.774;2023-11-19T11:04:22;96918.66;;;5.38;80.02
41044;BME280;51680;49.806;18.774;2023-11-19T11:07:24;96916.66;;;5.43;80.01
41044;BME280;51680;49.806;18.774;2023-11-19T11:10:31;96906.41;;;5.41;80.56
41044;BME280;51680;49.806;18.774;2023-11-19T11:13:37;96898.38;;;5.13;81.70
41044;BME280;51680;49.806;18.774;2023-11-19T11:16:42;96893.66;;;4.87;82.88
41044;BME280;51680;49.806;18.774;2023-11-19T11:19:44;96894.28;;;4.75;83.15
41044;BME280;51680;49.806;18.774;2023-11-19T11:23:00;96879.34;;;4.63;84.72
41044;BME280;51680;49.806;18.774;2023-11-19T11:26:22;96869.47;;;4.54;85.58
41044;BME280;51680;49.806;18.774;2023-11-19T11:29:37;96869.66;;;4.33;87.48
41044;BME280;51680;49.806;18.774;2023-11-19T11:32:45;96859.56;;;4.45;86.81
41044;BME280;51680;49.806;18.774;2023-11-19T11:35:55;96840.34;;;4.51;86.94
41044;BME280;51680;49.806;18.774;2023-11-19T11:39:06;96832.06;;;4.44;87.08
41044;BME280;51680;49.806;18.774;2023-11-19T11:42:36;96840.66;;;4.62;86.67
41044;BME280;51680;49.806;18.774;2023-11-19T11:45:39;96834.81;;;4.58;87.46
41044;BME280;51680;49.806;18.774;2023-11-19T11:48:45;96834.50;;;4.64;87.49
41044;BME280;51680;49.806;18.774;2023-11-19T11:52:03;96842.72;;;4.89;87.56
41044;BME280;51680;49.806;18.774;2023-11-19T11:55:05;96830.16;;;4.99;86.51
41044;BME280;51680;49.806;18.774;2023-11-19T11:58:11;96815.00;;;5.08;86.96
41044;BME280;51680;49.806;18.774;2023-11-19T12:01:15;96809.66;;;5.11;87.05
41044;BME280;51680;49.806;18.774;2023-11-19T12:04:20;96807.53;;;5.19;87.23
41044;BME280;51680;49.806;18.774;2023-11-19T12:07:24;96804.28;;;5.31;86.14
41044;BME280;51680;49.806;18.774;2023-11-19T12:10:26;96803.63;;;5.43;85.98
41044;BME280;51680;49.806;18.774;2023-11-19T12:13:47;96790.03;;;5.55;85.74
41044;BME280;51680;49.806;18.774;2023-11-19T12:17:03;96790.94;;;5.54;85.57
41044;BME280;51680;49.806;18.774;2023-11-19T12:20:06;96781.44;;;5.55;86.10
41044;BME280;51680;49.806;18.774;2023-11-19T12:23:09;96790.72;;;5.59;85.99
41044;BME280;51680;49.806;18.774;2023-11-19T12:26:21;96772.78;;;5.71;85.49
41044;BME280;51680;49.806;18.774;2023-11-19T12:29:43;96776.69;;;5.78;85.58
41044;BME280;51680;49.806;18.774;2023-11-19T12:32:46;96771.38;;;5.81;85.12
41044;BME280;51680;49.806;18.774;2023-11-19T12:35:48;96772.69;;;5.88;84.69
41044;BME280;51680;49.806;18.774;2023-11-19T12:38:50;96766.44;;;5.92;84.83
41044;BME280;51680;49.806;18.774;2023-11-19T12:41:52;96766.03;;;5.84;85.54
41044;BME280;51680;49.806;18.774;2023-11-19T12:44:56;96761.66;;;5.85;86.32
41044;BME280;51680;49.806;18.774;2023-11-19T12:48:04;96767.84;;;5.82;87.07
41044;BME280;51680;49.806;18.774;2023-11-19T12:51:06;96772.22;;;5.82;87.15
41044;BME280;51680;49.806;18.774;2023-11-19T12:54:09;96764.81;;;5.74;88.37
41044;BME280;51680;49.806;18.774;2023-11-19T12:57:11;96763.44;;;5.84;87.63
41044;BME280;51680;49.806;18.774;2023-11-19T13:00:21;96767.78;;;5.84;88.54
41044;BME280;51680;49.806;18.774;2023-11-19T13:03:42;96776.94;;;5.74;89.17
41044;BME280;51680;49.806;18.774;2023-11-19T13:06:45;96780.19;;;5.77;89.73
41044;BME280;51680;49.806;18.774;2023-11-19T13:09:47;96776.59;;;5.80;89.15
41044;BME280;51680;49.806;18.774;2023-11-19T13:13:00;96784.56;;;5.92;89.01
41044;BME280;51680;49.806;18.774;2023-11-19T13:16:05;96774.38;;;5.89;89.58
41044;BME280;51680;49.806;18.774;2023-11-19T13:19:07;96780.22;;;6.08;88.59
41044;BME280;51680;49.806;18.774;2023-11-19T13:22:09;96773.47;;;6.20;88.53
41044;BME280;51680;49.806;18.774;2023-11-19T13:25:11;96772.81;;;6.16;89.14
41044;BME280;51680;49.806;18.774;2023-11-19T13:28:14;96766.97;;;6.28;88.74
41044;BME280;51680;49.806;18.774;2023-11-19T13:31:17;96767.53;;;6.33;88.74
41044;BME280;51680;49.806;18.774;2023-11-19T13:34:19;96749.56;;;6.30;89.08
41044;BME280;51680;49.806;18.774;2023-11-19T13:37:23;96751.69;;;6.38;88.74
41044;BME280;51680;49.806;18.774;2023-11-19T13:40:44;96765.72;;;6.49;87.92
41044;BME280;51680;49.806;18.774;2023-11-19T13:43:46;96771.50;;;6.39;89.19
41044;BME280;51680;49.806;18.774;2023-11-19T13:46:49;96773.44;;;6.35;89.27
41044;BME280;51680;49.806;18.774;2023-11-19T13:49:51;96758.25;;;6.29;89.83
41044;BME280;51680;49.806;18.774;2023-11-19T13:52:53;96744.06;;;6.21;90.10
41044;BME280;51680;49.806;18.774;2023-11-19T13:55:55;96732.94;;;6.19;90.25
41044;BME280;51680;49.806;18.774;2023-11-19T13:58:59;96737.84;;;6.09;91.09
41044;BME280;51680;49.806;18.774;2023-11-19T14:02:02;96750.66;;;6.26;90.11
41044;BME280;51680;49.806;18.774;2023-11-19T14:05:08;96749.06;;;6.24;90.73
41044;BME280;51680;49.806;18.774;2023-11-19T14:08:11;96744.72;;;6.24;90.91
41044;BME280;51680;49.806;18.774;2023-11-19T14:11:14;96751.06;;;6.34;90.69
41044;BME280;51680;49.806;18.774;2023-11-19T14:14:16;96754.81;;;6.29;91.36
41044;BME280;51680;49.806;18.774;2023-11-19T14:17:20;96753.81;;;6.31;91.56
41044;BME280;51680;49.806;18.774;2023-11-19T14:20:22;96755.00;;;6.26;92.12
41044;BME280;51680;49.806;18.774;2023-11-19T14:23:25;96752.72;;;6.35;91.84
41044;BME280;51680;49.806;18.774;2023-11-19T14:26:28;96748.47;;;6.34;91.92
41044;BME280;51680;49.806;18.774;2023-11-19T14:29:30;96743.84;;;6.39;91.55
41044;BME280;51680;49.806;18.774;2023-11-19T14:32:34;96762.38;;;6.47;91.33
41044;BME280;51680;49.806;18.774;2023-11-19T14:35:37;96742.94;;;6.54;90.90
41044;BME280;51680;49.806;18.774;2023-11-19T14:38:39;96743.16;;;6.51;91.33
41044;BME280;51680;49.806;18.774;2023-11-19T14:41:42;96739.09;;;6.61;90.28
41044;BME280;51680;49.806;18.774;2023-11-19T14:44:44;96747.91;;;6.73;90.41
41044;BME280;51680;49.806;18.774;2023-11-19T14:47:47;96755.31;;;6.79;90.02
41044;BME280;51680;49.806;18.774;2023-11-19T14:50:49;96754.38;;;6.80;90.14
41044;BME280;51680;49.806;18.774;2023-11-19T14:53:52;96746.78;;;6.77;90.17
41044;BME280;51680;49.806;18.774;2023-11-19T14:56:54;96744.84;;;6.80;90.23
41044;BME280;51680;49.806;18.774;2023-11-19T14:59:56;96749.84;;;6.83;90.02
41044;BME280;51680;49.806;18.774;2023-11-19T15:02:59;96757.25;;;6.89;89.89
41044;BME280;51680;49.806;18.774;2023-11-19T15:06:01;96740.34;;;6.54;91.78
41044;BME280;51680;49.806;18.774;2023-11-19T15:09:04;96750.19;;;6.63;92.28
41044;BME280;51680;49.806;18.774;2023-11-19T15:12:08;96752.88;;;6.76;91.74
41044;BME280;51680;49.806;18.774;2023-11-19T15:15:10;96744.38;;;6.74;92.16
41044;BME280;51680;49.806;18.774;2023-11-19T15:18:15;96748.34;;;6.79;91.36
41044;BME280;51680;49.806;18.774;2023-11-19T15:21:18;96756.25;;;6.78;91.94
41044;BME280;51680;49.806;18.774;2023-11-19T15:24:20;96749.38;;;6.77;90.81
41044;BME280;51680;49.806;18.774;2023-11-19T15:27:22;96751.50;;;6.84;90.93
41044;BME280;51680;49.806;18.774;2023-11-19T15:30:24;96752.28;;;7.00;90.36
41044;BME280;51680;49.806;18.774;2023-11-19T15:33:28;96752.06;;;7.03;89.83
41044;BME280;51680;49.806;18.774;2023-11-19T15:36:30;96744.41;;;7.16;89.09
41044;BME280;51680;49.806;18.774;2023-11-19T15:39:35;96753.47;;;7.23;89.14
41044;BME280;51680;49.806;18.774;2023-11-19T15:42:37;96763.31;;;7.32;88.50
41044;BME280;51680;49.806;18.774;2023-11-19T15:45:40;96754.88;;;7.28;88.49
41044;BME280;51680;49.806;18.774;2023-11-19T15:48:43;96754.31;;;7.23;88.78
41044;BME280;51680;49.806;18.774;2023-11-19T15:51:45;96760.78;;;7.30;88.59
41044;BME280;51680;49.806;18.774;2023-11-19T15:54:47;96763.00;;;7.36;88.48
41044;BME280;51680;49.806;18.774;2023-11-19T15:57:49;96764.88;;;7.34;88.30
41044;BME280;51680;49.806;18.774;2023-11-19T16:00:51;96753.47;;;7.23;88.04
41044;BME280;51680;49.806;18.774;2023-11-19T16:03:55;96752.84;;;7.19;88.96
41044;BME280;51680;49.806;18.774;2023-11-19T16:06:57;96751.19;;;7.18;88.76
41044;BME280;51680;49.806;18.774;2023-11-19T16:09:59;96748.47;;;7.20;89.40
41044;BME280;51680;49.806;18.774;2023-11-19T16:13:23;96744.03;;;7.08;89.75